Time;durP1;ratioP1;P1;durP2;ratioP2;P2;SDS_P1;SDS_P2;PMS_P1;PMS_P2;Temp;Humidity;BMP_temperature;BMP_pressure;BME280_temperature;BME280_humidity;BME280_pressure;Samples;Min_cycle;Max_cycle;Signal;HPM_P1;HPM_P2
2021/08/02 00:02:53;;;;;;;4.93;2.58;;;;;;;14.12;82.63;101202.13;10460033;28;20045;-65
2021/08/02 00:07:58;;;;;;;3.40;2.10;;;;;;;14.23;81.37;101195.31;10459934;28;20083;-64
2021/08/02 00:13:10;;;;;;;3.28;1.75;;;;;;;14.09;82.01;101183.91;10459499;28;20049;-67
2021/08/02 00:18:12;;;;;;;3.08;1.67;;;;;;;13.86;80.29;101189.84;10458958;28;20489;-66
2021/08/02 00:23:15;;;;;;;2.55;1.95;;;;;;;14.16;81.08;101192.25;10458225;28;20045;-65
2021/08/02 00:28:17;;;;;;;9.30;2.67;;;;;;;13.96;82.68;101201.44;10459121;28;20049;-64
2021/08/02 00:33:19;;;;;;;9.00;2.63;;;;;;;14.09;81.90;101193.59;10458584;28;20045;-66
2021/08/02 00:38:29;;;;;;;5.93;2.15;;;;;;;14.05;82.64;101192.94;10456968;28;20490;-66
2021/08/02 00:44:08;;;;;;;5.13;2.28;;;;;;;14.41;80.75;101204.63;10457393;28;20060;-65
2021/08/02 00:49:12;;;;;;;6.97;2.38;;;;;;;14.29;81.16;101205.47;10457832;28;20504;-65
2021/08/02 00:54:16;;;;;;;6.38;2.15;;;;;;;14.13;81.62;101202.97;10458072;28;20052;-65
2021/08/02 00:59:19;;;;;;;5.10;2.38;;;;;;;13.82;81.02;101201.50;10457108;28;20052;-65
2021/08/02 01:04:23;;;;;;;9.95;2.72;;;;;;;14.04;81.13;101206.22;10456891;28;20052;-65
2021/08/02 01:09:26;;;;;;;7.38;2.67;;;;;;;13.86;82.21;101213.53;10457075;28;20049;-65
2021/08/02 01:14:29;;;;;;;8.90;2.20;;;;;;;14.25;81.13;101225.03;10457802;28;20051;-65
2021/08/02 01:19:32;;;;;;;4.40;3.00;;;;;;;14.14;81.22;101212.56;10455647;28;20135;-64
2021/08/02 01:24:35;;;;;;;4.78;3.85;;;;;;;14.04;81.09;101203.59;10455129;28;20049;-65
2021/08/02 01:30:11;;;;;;;6.93;3.03;;;;;;;13.92;82.52;101202.59;10455424;28;20056;-65
2021/08/02 01:35:14;;;;;;;6.10;2.70;;;;;;;14.00;82.47;101208.19;10457121;28;20049;-64
2021/08/02 01:40:16;;;;;;;8.00;4.13;;;;;;;13.82;82.47;101206.75;10456389;28;20087;-65
2021/08/02 01:45:19;;;;;;;7.35;3.33;;;;;;;13.90;82.17;101218.50;10456155;28;20057;-65
2021/08/02 01:50:58;;;;;;;7.43;4.38;;;;;;;14.00;82.68;101210.81;10456232;28;20485;-65
2021/08/02 01:56:22;;;;;;;12.43;3.72;;;;;;;14.01;81.49;101211.69;10455616;28;20045;-65
2021/08/02 02:01:25;;;;;;;10.05;3.72;;;;;;;14.06;80.99;101215.69;10454888;28;20048;-65
2021/08/02 02:06:32;;;;;;;6.35;3.40;;;;;;;14.08;80.63;101208.53;10455461;28;20123;-66
2021/08/02 02:11:38;;;;;;;9.05;3.85;;;;;;;13.93;81.50;101223.53;10454752;28;20072;-66
2021/08/02 02:16:44;;;;;;;7.63;3.90;;;;;;;14.24;81.09;101208.38;10454548;28;20049;-65
2021/08/02 02:21:46;;;;;;;8.70;3.88;;;;;;;14.08;81.54;101213.81;10454538;28;20044;-65
2021/08/02 02:26:49;;;;;;;7.93;3.78;;;;;;;14.18;81.99;101207.94;10454682;28;20041;-65
2021/08/02 02:31:52;;;;;;;7.25;4.40;;;;;;;14.25;81.03;101212.69;10455506;28;20055;-66
2021/08/02 02:36:54;;;;;;;8.55;3.97;;;;;;;14.19;82.33;101209.63;10442204;28;20124;-65
2021/08/02 02:41:58;;;;;;;10.63;3.88;;;;;;;13.98;81.62;101199.56;10462239;28;20061;-66
2021/08/02 02:47:01;;;;;;;9.95;3.70;;;;;;;13.94;81.30;101201.56;10462151;28;20045;-65
2021/08/02 02:52:05;;;;;;;6.38;3.13;;;;;;;14.29;82.16;101198.38;10463061;28;20052;-66
2021/08/02 02:57:08;;;;;;;11.13;4.30;;;;;;;13.82;84.55;101196.22;10462600;28;20045;-64
2021/08/02 03:02:11;;;;;;;4.47;3.15;;;;;;;14.15;82.98;101200.25;10462569;28;20056;-65
2021/08/02 03:07:15;;;;;;;7.68;3.08;;;;;;;13.91;82.68;101201.75;10462003;28;20053;-64
2021/08/02 03:12:17;;;;;;;4.88;3.13;;;;;;;13.93;83.14;101199.00;10460829;28;20052;-64
2021/08/02 03:17:19;;;;;;;9.27;4.65;;;;;;;13.63;84.37;101205.31;10461399;28;20045;-65
2021/08/02 03:22:25;;;;;;;10.27;4.97;;;;;;;13.69;84.25;101214.63;10461512;28;20051;-65
2021/08/02 03:27:36;;;;;;;11.13;3.22;;;;;;;13.83;83.46;101219.81;10461967;28;20056;-63
2021/08/02 03:32:40;;;;;;;;;;;;;;;13.86;83.80;101218.78;10461837;28;20045;-64
2021/08/02 03:37:43;;;;;;;12.15;4.90;;;;;;;13.88;83.80;101232.69;10475934;28;20430;-63
2021/08/02 03:42:47;;;;;;;10.00;5.38;;;;;;;14.03;81.88;101226.44;10459466;28;20060;-64
2021/08/02 03:47:49;;;;;;;12.43;5.10;;;;;;;13.82;83.06;101235.69;10458304;28;20048;-64
2021/08/02 03:52:51;;;;;;;7.50;3.95;;;;;;;13.86;83.32;101240.69;10459771;28;20053;-63
2021/08/02 03:57:54;;;;;;;8.85;4.57;;;;;;;13.67;84.01;101242.81;10460008;28;20041;-64
2021/08/02 04:02:56;;;;;;;11.45;5.47;;;;;;;13.65;84.83;101249.94;10459798;28;20481;-63
2021/08/02 04:07:59;;;;;;;7.13;4.78;;;;;;;13.66;83.61;101252.47;10460083;28;20052;-64
2021/08/02 04:13:01;;;;;;;9.48;5.57;;;;;;;13.67;84.51;101248.91;10458460;28;20056;-65
2021/08/02 04:18:04;;;;;;;14.90;6.40;;;;;;;13.81;83.45;101255.91;10458977;28;20524;-64
2021/08/02 04:23:07;;;;;;;6.57;4.97;;;;;;;13.86;83.57;101260.91;10459250;28;20045;-64
2021/08/02 04:28:09;;;;;;;11.95;5.35;;;;;;;13.62;84.08;101274.66;10458428;28;20052;-65
2021/08/02 04:33:11;;;;;;;8.13;4.90;;;;;;;13.87;83.76;101275.72;10458654;28;20378;-64
2021/08/02 04:38:13;;;;;;;12.27;6.05;;;;;;;13.67;83.67;101284.91;10458381;28;20059;-65
2021/08/02 04:43:16;;;;;;;9.02;5.47;;;;;;;13.83;84.25;101280.34;10458810;28;20051;-64
2021/08/02 04:48:18;;;;;;;8.93;5.15;;;;;;;14.00;84.05;101281.91;10457922;28;20071;-64
2021/08/02 04:53:20;;;;;;;6.97;4.63;;;;;;;14.02;83.78;101274.78;10457914;28;20492;-63
2021/08/02 04:58:23;;;;;;;7.05;4.13;;;;;;;13.93;83.29;101286.72;10457618;28;20396;-63
2021/08/02 05:03:25;;;;;;;13.07;5.07;;;;;;;13.98;83.89;101275.06;10457487;28;20409;-64
2021/08/02 05:08:28;;;;;;;9.57;5.00;;;;;;;13.87;84.05;101288.88;10456329;28;20132;-64
2021/08/02 05:13:31;;;;;;;13.77;4.35;;;;;;;14.07;83.26;101280.59;10458072;28;20045;-64
2021/08/02 05:18:33;;;;;;;7.22;4.85;;;;;;;14.19;83.49;101278.94;10456749;28;20507;-64
2021/08/02 05:23:35;;;;;;;7.00;4.75;;;;;;;14.46;82.61;101283.34;10457073;28;20048;-64
2021/08/02 05:28:38;;;;;;;9.38;4.38;;;;;;;14.51;81.60;101278.63;10456646;28;20049;-63
2021/08/02 05:33:40;;;;;;;10.00;5.00;;;;;;;14.61;82.48;101285.00;10456775;28;20045;-63
2021/08/02 05:38:42;;;;;;;8.02;4.63;;;;;;;14.48;83.58;101287.56;10455299;28;20052;-64
2021/08/02 05:43:45;;;;;;;6.43;4.82;;;;;;;14.48;83.89;101292.00;10439145;28;20049;-63
2021/08/02 05:48:47;;;;;;;7.95;4.22;;;;;;;14.72;82.46;101299.25;10456224;28;20504;-63
2021/08/02 05:53:49;;;;;;;12.10;5.05;;;;;;;14.79;81.93;101298.75;10456201;28;20052;-63
2021/08/02 05:58:52;;;;;;;8.73;4.90;;;;;;;15.01;81.38;101297.28;10454635;28;20049;-63
2021/08/02 06:03:54;;;;;;;15.68;5.70;;;;;;;14.87;81.30;101303.50;10455536;28;20045;-64
2021/08/02 06:08:56;;;;;;;8.70;4.32;;;;;;;14.93;81.52;101305.72;10455823;28;20493;-64
2021/08/02 06:13:59;;;;;;;8.35;4.60;;;;;;;14.95;81.09;101313.53;10464533;28;20060;-64
2021/08/02 06:19:01;;;;;;;8.93;4.85;;;;;;;14.92;80.40;101311.94;10464269;28;20094;-64
2021/08/02 06:24:04;;;;;;;7.63;4.53;;;;;;;15.16;79.69;101309.44;10463826;28;20107;-64
2021/08/02 06:29:06;;;;;;;13.30;5.15;;;;;;;14.97;80.42;101315.09;10461950;28;20408;-64
2021/08/02 06:34:09;;;;;;;8.57;4.45;;;;;;;15.28;79.93;101317.44;10463390;28;20041;-64
2021/08/02 06:39:12;;;;;;;10.00;5.70;;;;;;;15.03;81.09;101317.31;10463208;28;20053;-64
2021/08/02 06:44:14;;;;;;;10.80;4.45;;;;;;;15.33;78.91;101312.69;10461749;28;20065;-64
2021/08/02 06:49:16;;;;;;;9.18;3.53;;;;;;;15.34;78.10;101322.28;10461574;28;20052;-63
2021/08/02 06:54:18;;;;;;;7.95;3.75;;;;;;;15.48;77.30;101322.16;10461420;28;20044;-63
2021/08/02 06:59:21;;;;;;;7.78;3.42;;;;;;;15.24;77.34;101322.06;10462183;28;20045;-63
2021/08/02 07:04:23;;;;;;;6.97;2.88;;;;;;;15.71;75.62;101323.19;10461205;28;20041;-64
2021/08/02 07:09:25;;;;;;;9.57;3.15;;;;;;;16.13;74.29;101325.53;10461894;28;20515;-64
2021/08/02 07:14:28;;;;;;;6.70;2.35;;;;;;;16.31;73.08;101329.50;10461928;28;20049;-64
2021/08/02 07:19:30;;;;;;;3.65;1.50;;;;;;;16.85;69.80;101335.25;10461607;28;20049;-64
2021/08/02 07:24:33;;;;;;;4.25;1.75;;;;;;;17.41;68.13;101343.28;10460287;28;20041;-65
2021/08/02 07:29:35;;;;;;;5.72;1.60;;;;;;;17.64;67.70;101335.38;10461521;28;20064;-64
2021/08/02 07:34:37;;;;;;;1.92;1.48;;;;;;;18.27;66.86;101346.25;10460930;28;20045;-66
2021/08/02 07:39:40;;;;;;;2.53;1.02;;;;;;;18.32;61.99;101337.91;10460980;28;20044;-65
2021/08/02 07:44:42;;;;;;;4.47;2.15;;;;;;;18.63;63.28;101325.66;10461303;28;20056;-65
2021/08/02 07:49:44;;;;;;;6.82;1.67;;;;;;;18.82;61.83;101330.25;10460537;28;20140;-65
2021/08/02 07:54:46;;;;;;;4.95;1.38;;;;;;;19.21;61.77;101332.34;10459586;28;20064;-64
2021/08/02 07:59:49;;;;;;;1.50;1.00;;;;;;;19.46;60.47;101325.75;10459903;28;20059;-65
2021/08/02 08:04:51;;;;;;;4.60;1.77;;;;;;;18.61;62.92;101335.53;10459729;28;20444;-66
2021/08/02 08:09:53;;;;;;;6.18;1.75;;;;;;;17.88;64.33;101332.59;10459582;28;20045;-65
2021/08/02 08:14:56;;;;;;;3.95;1.60;;;;;;;18.62;65.03;101334.56;10459283;28;20371;-65
2021/08/02 08:19:58;;;;;;;5.45;1.40;;;;;;;19.16;61.81;101335.38;10459174;28;20493;-65
2021/08/02 08:25:00;;;;;;;3.50;1.20;;;;;;;20.27;58.42;101332.84;10458851;28;20060;-65
2021/08/02 08:30:08;;;;;;;2.63;1.23;;;;;;;20.40;55.74;101331.59;10458137;28;20054;-63
2021/08/02 08:35:11;;;;;;;3.63;1.05;;;;;;;18.62;61.70;101331.91;10458032;28;20131;-64
2021/08/02 08:40:13;;;;;;;6.18;1.55;;;;;;;17.90;64.56;101335.97;10458628;28;20123;-65
2021/08/02 08:45:16;;;;;;;5.07;1.33;;;;;;;17.41;65.14;101340.66;10457563;28;20501;-65
2021/08/02 08:50:19;;;;;;;3.97;1.50;;;;;;;20.27;58.71;101331.03;10458238;28;20064;-64
2021/08/02 08:55:21;;;;;;;10.38;2.33;;;;;;;21.05;56.03;101327.53;10458054;28;20057;-65
2021/08/02 09:00:25;;;;;;;2.25;1.40;;;;;;;20.86;54.90;101329.22;10457673;28;20049;-65
2021/08/02 09:05:34;;;;;;;3.75;1.80;;;;;;;19.55;60.41;101342.69;10457466;28;20488;-65
2021/08/02 09:10:37;;;;;;;6.85;1.42;;;;;;;18.52;60.16;101333.63;10456166;28;20559;-65
2021/08/02 09:15:44;;;;;;;2.58;1.55;;;;;;;19.73;61.32;101330.47;10457027;28;20049;-64
2021/08/02 09:20:46;;;;;;;3.50;1.48;;;;;;;20.89;54.16;101322.78;10457108;28;20056;-64
2021/08/02 09:25:50;;;;;;;3.20;1.20;;;;;;;22.36;53.13;101328.31;10455322;28;20519;-64
2021/08/02 09:31:00;;;;;;;2.83;1.10;;;;;;;22.27;52.19;101332.69;10456985;28;20052;-65
2021/08/02 09:36:02;;;;;;;5.68;1.50;;;;;;;20.04;54.42;101336.59;10455627;28;20448;-64
2021/08/02 09:41:05;;;;;;;5.25;1.33;;;;;;;19.74;58.87;101337.47;10456445;28;20049;-64
2021/08/02 09:46:08;;;;;;;3.65;1.33;;;;;;;21.25;53.69;101325.63;10455612;28;20041;-65
2021/08/02 09:51:17;;;;;;;1.63;0.90;;;;;;;19.65;57.60;101332.94;10456733;28;20048;-64
2021/08/02 09:56:22;;;;;;;3.65;0.73;;;;;;;19.36;58.26;101344.28;10456489;28;20041;-64
2021/08/02 10:01:43;;;;;;;3.00;0.85;;;;;;;18.83;58.59;101339.06;10456273;28;20045;-64
2021/08/02 10:06:46;;;;;;;1.40;0.93;;;;;;;18.78;59.56;101343.88;10454847;28;20408;-65
2021/08/02 10:11:48;;;;;;;2.25;0.90;;;;;;;18.33;60.73;101347.56;10455363;28;20057;-65
2021/08/02 10:17:01;;;;;;;3.67;1.15;;;;;;;18.37;62.41;101343.69;10456359;28;20045;-64
2021/08/02 10:22:05;;;;;;;2.42;1.45;;;;;;;18.11;64.05;101351.13;10455106;28;20049;-64
2021/08/02 10:27:07;;;;;;;4.72;1.13;;;;;;;18.12;64.99;101351.00;10456904;28;20053;-64
2021/08/02 10:32:24;;;;;;;3.40;1.08;;;;;;;18.26;63.01;101349.88;10454439;28;20052;-64
2021/08/02 10:37:34;;;;;;;2.53;1.33;;;;;;;18.02;65.86;101347.38;10455657;28;20070;-65
2021/08/02 10:42:47;;;;;;;3.65;1.10;;;;;;;18.62;62.32;101349.63;10454578;28;20060;-65
2021/08/02 10:47:50;;;;;;;3.58;1.10;;;;;;;19.62;58.96;101339.38;10454976;28;20386;-64
2021/08/02 10:52:54;;;;;;;1.67;1.00;;;;;;;20.61;52.57;101338.63;10455204;28;20409;-63
2021/08/02 10:58:00;;;;;;;2.90;1.23;;;;;;;19.89;54.42;101335.31;10458186;28;20049;-64
2021/08/02 11:03:04;;;;;;;1.00;0.95;;;;;;;22.03;51.21;101338.63;10461100;28;20040;-63
2021/08/02 11:08:07;;;;;;;2.50;1.08;;;;;;;21.68;47.76;101332.22;10461853;28;20397;-65
2021/08/02 11:13:09;;;;;;;2.25;1.10;;;;;;;20.29;51.58;101336.19;10462188;28;20103;-62
2021/08/02 11:18:11;;;;;;;1.27;1.10;;;;;;;20.46;53.92;101337.34;10460671;28;20049;-63
2021/08/02 11:23:13;;;;;;;2.55;1.13;;;;;;;20.71;54.02;101331.50;10461149;28;20049;-65
2021/08/02 11:28:16;;;;;;;4.03;1.10;;;;;;;20.15;50.70;101340.09;10461199;28;20041;-64
2021/08/02 11:33:18;;;;;;;1.80;1.25;;;;;;;20.54;54.40;101342.78;10462230;28;20056;-63
2021/08/02 11:38:20;;;;;;;1.13;1.02;;;;;;;20.08;57.63;101355.75;10459474;28;20056;-66
2021/08/02 11:43:23;;;;;;;4.03;1.50;;;;;;;18.96;58.66;101360.09;10459348;28;20057;-64
2021/08/02 11:48:25;;;;;;;3.65;1.30;;;;;;;18.97;62.25;101362.63;10459482;28;20106;-65
2021/08/02 11:53:36;;;;;;;5.20;1.27;;;;;;;18.90;62.06;101366.78;10461690;28;20049;-64
2021/08/02 11:58:43;;;;;;;3.67;1.50;;;;;;;19.17;61.95;101370.72;10459852;28;20045;-64
2021/08/02 12:03:47;;;;;;;3.05;1.45;;;;;;;19.36;57.50;101370.84;10460000;28;20427;-63
2021/08/02 12:08:53;;;;;;;3.67;1.23;;;;;;;19.42;55.88;101364.16;10457987;28;20048;-64
2021/08/02 12:13:55;;;;;;;2.67;1.15;;;;;;;19.29;56.51;101367.84;10459626;28;20052;-64
2021/08/02 12:19:10;;;;;;;4.43;1.30;;;;;;;19.90;56.43;101374.16;10459443;28;20049;-66
2021/08/02 12:24:14;;;;;;;3.33;1.38;;;;;;;19.27;57.34;101375.13;10458181;28;20080;-64
2021/08/02 12:29:27;;;;;;;4.95;1.27;;;;;;;19.35;57.81;101363.84;10459347;28;20051;-65
2021/08/02 12:34:29;;;;;;;3.28;1.45;;;;;;;19.53;57.79;101365.88;10458893;28;20049;-64
2021/08/02 12:39:32;;;;;;;3.75;1.42;;;;;;;19.55;59.86;101370.09;10458685;28;20049;-65
2021/08/02 12:44:34;;;;;;;2.58;1.38;;;;;;;19.19;58.63;101366.13;10458746;28;20045;-65
2021/08/02 12:49:37;;;;;;;3.08;1.17;;;;;;;18.99;59.44;101371.31;10458511;28;20056;-63
2021/08/02 12:54:39;;;;;;;3.95;1.10;;;;;;;19.15;59.56;101362.91;10458426;28;20049;-65
2021/08/02 12:59:46;;;;;;;3.47;1.15;;;;;;;18.97;61.23;101367.94;10457419;28;20098;-64
2021/08/02 13:04:48;;;;;;;2.08;1.20;;;;;;;18.83;60.95;101363.81;10457487;28;20055;-64
2021/08/02 13:09:51;;;;;;;3.30;1.40;;;;;;;18.94;60.74;101354.94;10457205;28;20401;-63
2021/08/02 13:14:54;;;;;;;3.05;1.40;;;;;;;19.09;62.17;101358.94;10457568;28;20055;-67
2021/08/02 13:19:57;;;;;;;3.97;1.50;;;;;;;19.33;58.86;101362.28;10456701;28;20049;-64
2021/08/02 13:30:20;;;;;;;1.20;0.87;;;;;;;20.56;52.60;101354.13;10457231;28;20056;-65
2021/08/02 13:35:22;;;;;;;3.15;0.88;;;;;;;19.80;55.72;101352.03;10456789;28;20049;-66
2021/08/02 13:40:24;;;;;;;3.30;1.17;;;;;;;20.80;55.04;101348.44;10456379;28;20505;-65
2021/08/02 13:45:40;;;;;;;5.18;1.38;;;;;;;21.37;53.03;101344.94;10456724;28;20084;-65
2021/08/02 13:50:42;;;;;;;4.35;1.60;;;;;;;20.11;52.85;101346.69;10456996;28;20122;-65
2021/08/02 13:55:45;;;;;;;2.38;1.20;;;;;;;21.36;52.40;101346.75;10456364;28;20160;-64
2021/08/02 14:00:47;;;;;;;1.83;1.20;;;;;;;20.26;51.47;101349.78;10455061;28;20055;-65
2021/08/02 14:05:50;;;;;;;3.92;1.30;;;;;;;20.53;53.81;101343.78;10456291;28;20053;-65
2021/08/02 14:11:00;;;;;;;3.88;1.30;;;;;;;20.14;52.99;101338.41;10455285;28;20045;-66
2021/08/02 14:16:04;;;;;;;2.45;1.60;;;;;;;20.14;55.65;101339.28;10454886;28;20123;-66
2021/08/02 14:21:12;;;;;;;2.88;1.05;;;;;;;19.54;57.75;101344.50;10455809;28;20072;-63
2021/08/02 14:26:16;;;;;;;2.65;1.25;;;;;;;19.36;56.45;101344.28;10455612;28;20547;-65
2021/08/02 14:31:18;;;;;;;5.53;1.50;;;;;;;18.76;58.39;101351.97;10456579;28;20049;-65
2021/08/02 14:36:22;;;;;;;2.75;1.20;;;;;;;18.70;60.52;101348.03;10463192;28;20567;-66
2021/08/02 14:41:27;;;;;;;6.68;1.52;;;;;;;18.59;61.83;101347.22;10462982;28;20396;-66
2021/08/02 14:46:31;;;;;;;4.55;1.65;;;;;;;18.64;60.17;101353.81;10461666;28;20414;-65
2021/08/02 14:51:46;;;;;;;3.65;1.92;;;;;;;18.92;58.50;101351.56;10462009;28;20070;-66
2021/08/02 14:56:49;;;;;;;2.72;1.30;;;;;;;19.70;57.03;101353.78;10462974;28;20048;-65
2021/08/02 15:01:52;;;;;;;4.20;1.92;;;;;;;20.54;55.08;101353.44;10462305;28;20049;-66
2021/08/02 15:06:54;;;;;;;1.48;1.15;;;;;;;20.54;54.26;101354.28;10461040;28;20048;-66
2021/08/02 15:11:57;;;;;;;3.35;1.63;;;;;;;20.77;53.48;101356.69;10462018;28;20044;-65
2021/08/02 15:17:00;;;;;;;3.28;1.50;;;;;;;23.02;48.09;101350.22;10461670;28;20052;-66
2021/08/02 15:22:18;;;;;;;5.47;1.42;;;;;;;23.83;49.27;101344.50;10460515;28;20049;-65
2021/08/02 15:27:25;;;;;;;2.50;1.25;;;;;;;23.51;47.61;101342.50;10460383;28;20057;-67
2021/08/02 15:32:27;;;;;;;5.00;1.20;;;;;;;23.39;47.37;101341.97;10461146;28;20416;-66
2021/08/02 15:37:33;;;;;;;3.55;1.23;;;;;;;22.68;46.51;101345.59;10459987;28;20045;-65
2021/08/02 15:42:35;;;;;;;1.83;1.13;;;;;;;22.26;48.50;101352.38;10460082;28;20138;-65
2021/08/02 15:47:46;;;;;;;2.78;1.17;;;;;;;21.51;51.49;101344.50;10460467;28;20053;-65
2021/08/02 15:53:07;;;;;;;3.80;1.35;;;;;;;20.93;54.63;101350.78;10461101;28;20049;-67
2021/08/02 15:58:19;;;;;;;2.78;1.15;;;;;;;21.63;50.25;101340.66;10459620;28;20045;-64
2021/08/02 16:03:34;;;;;;;6.80;1.40;;;;;;;22.34;51.00;101340.97;10460123;28;20049;-66
2021/08/02 16:09:05;;;;;;;7.65;1.60;;;;;;;21.65;49.51;101332.50;10460358;28;20079;-64
2021/08/02 16:14:09;;;;;;;4.00;1.00;;;;;;;21.61;46.98;101331.97;10459740;28;20053;-65
2021/08/02 16:19:12;;;;;;;3.55;1.08;;;;;;;20.37;49.35;101337.19;10458196;28;20475;-66
2021/08/02 16:24:14;;;;;;;41.67;22.20;;;;;;;19.48;51.51;101345.03;10459138;28;20041;-65
2021/08/02 16:29:17;;;;;;;6.82;1.95;;;;;;;19.64;52.79;101342.72;10459155;28;20045;-64
2021/08/02 16:34:19;;;;;;;13.65;4.43;;;;;;;20.61;50.22;101333.28;10458712;28;20064;-65
2021/08/02 16:39:22;;;;;;;1.85;0.90;;;;;;;19.93;53.91;101334.03;10458162;28;20052;-64
2021/08/02 16:44:24;;;;;;;3.08;1.50;;;;;;;19.21;55.92;101333.16;10458315;28;20068;-65
2021/08/02 16:49:26;;;;;;;4.25;1.30;;;;;;;19.94;55.72;101333.09;10457289;28;20057;-64
2021/08/02 16:54:29;;;;;;;1.13;0.77;;;;;;;19.15;56.74;101336.38;10456833;28;20131;-65
2021/08/02 16:59:31;;;;;;;5.90;1.20;;;;;;;18.98;56.19;101335.16;10458013;28;20045;-65
2021/08/02 17:04:33;;;;;;;11.20;3.88;;;;;;;18.84;55.49;101330.97;10457749;28;20485;-66
2021/08/02 17:09:37;;;;;;;7.53;2.92;;;;;;;18.87;59.04;101333.38;10457608;28;20049;-65
2021/08/02 17:14:39;;;;;;;2.13;1.10;;;;;;;18.94;56.82;101326.56;10457787;28;20071;-65
2021/08/02 17:19:41;;;;;;;5.63;1.63;;;;;;;18.74;56.90;101319.44;10457185;28;20041;-65
2021/08/02 17:24:44;;;;;;;2.92;1.77;;;;;;;18.55;56.13;101322.78;10456310;28;20053;-65
2021/08/02 17:29:46;;;;;;;3.15;1.05;;;;;;;18.69;58.38;101326.94;10457197;28;20052;-66
2021/08/02 17:34:48;;;;;;;5.22;1.58;;;;;;;18.69;62.16;101338.41;10456789;28;20068;-67
2021/08/02 17:39:51;;;;;;;2.35;1.45;;;;;;;18.62;62.61;101339.84;10456535;28;20049;-66
2021/08/02 17:44:53;;;;;;;2.65;1.30;;;;;;;18.35;62.85;101343.81;10456214;28;20053;-64
2021/08/02 17:49:55;;;;;;;2.97;1.27;;;;;;;18.36;62.59;101345.50;10456584;28;20072;-64
2021/08/02 17:54:58;;;;;;;5.35;2.00;;;;;;;18.01;65.63;101351.03;10456673;28;20143;-63
2021/08/02 18:00:00;;;;;;;5.70;1.50;;;;;;;17.87;66.51;101351.25;10456192;28;20049;-66
2021/08/02 18:05:02;;;;;;;22.95;3.65;;;;;;;17.84;68.31;101360.28;10454976;28;20053;-63
2021/08/02 18:10:06;;;;;;;1.75;0.93;;;;;;;17.62;69.97;101358.47;10464323;28;20047;-63
2021/08/02 18:15:08;;;;;;;3.70;1.45;;;;;;;17.59;71.04;101372.78;10464201;28;20529;-64
2021/08/02 18:20:11;;;;;;;4.03;1.23;;;;;;;17.42;71.13;101365.31;10464091;28;20041;-63
2021/08/02 18:25:13;;;;;;;4.70;1.58;;;;;;;17.46;72.12;101374.69;10463843;28;20049;-64
2021/08/02 18:30:16;;;;;;;8.65;2.42;;;;;;;17.36;71.19;101385.16;10463945;28;20056;-64
2021/08/02 18:35:19;;;;;;;4.53;1.40;;;;;;;17.35;70.56;101385.25;10463480;28;20527;-63
2021/08/02 18:40:21;;;;;;;2.55;1.10;;;;;;;17.26;71.52;101384.19;10463693;28;20052;-65
2021/08/02 18:45:23;;;;;;;1.45;1.15;;;;;;;17.20;71.42;101389.97;10463419;28;20064;-63
2021/08/02 18:50:26;;;;;;;1.98;1.42;;;;;;;17.00;71.59;101375.59;10463324;28;20060;-63
2021/08/02 18:55:28;;;;;;;1.80;1.23;;;;;;;16.99;72.69;101377.38;10462786;28;20041;-63
2021/08/02 19:00:30;;;;;;;6.32;2.05;;;;;;;16.83;73.00;101385.59;10462594;28;20481;-64
2021/08/02 19:05:33;;;;;;;3.95;1.40;;;;;;;16.74;73.56;101388.06;10462551;28;20547;-63
2021/08/02 19:10:35;;;;;;;1.77;1.60;;;;;;;16.76;73.34;101387.00;10462267;28;20056;-62
2021/08/02 19:15:38;;;;;;;6.38;2.08;;;;;;;16.49;74.55;101392.50;10461790;28;20386;-64
2021/08/02 19:20:47;;;;;;;4.22;1.60;;;;;;;16.56;74.93;101399.06;10461775;28;20045;-63
2021/08/02 19:25:49;;;;;;;5.47;1.85;;;;;;;16.31;75.10;101400.00;10462300;28;20053;-64
2021/08/02 19:30:52;;;;;;;1.67;1.58;;;;;;;16.10;75.40;101403.19;10461645;28;20048;-62
2021/08/02 19:35:56;;;;;;;5.68;1.80;;;;;;;15.92;76.77;101407.13;10460373;28;20052;-64
2021/08/02 19:41:02;;;;;;;7.07;2.97;;;;;;;15.63;77.45;101401.22;10461040;28;20041;-63
2021/08/02 19:46:08;;;;;;;4.70;2.55;;;;;;;15.35;78.40;101419.81;10460699;28;20401;-65
2021/08/02 19:51:17;;;;;;;3.50;1.88;;;;;;;15.28;79.10;101405.34;10460797;28;20049;-64
2021/08/02 19:56:21;;;;;;;9.90;2.47;;;;;;;15.07;79.46;101420.81;10460389;28;20049;-64
2021/08/02 20:01:23;;;;;;;7.00;2.08;;;;;;;14.80;80.06;101421.66;10460098;28;20409;-64
2021/08/02 20:06:26;;;;;;;5.90;2.20;;;;;;;14.74;79.79;101424.69;10460089;28;20083;-64
2021/08/02 20:11:29;;;;;;;3.42;1.42;;;;;;;14.79;77.73;101427.03;10459808;28;20049;-66
2021/08/02 20:16:33;;;;;;;1.88;1.65;;;;;;;14.63;79.08;101425.41;10459577;28;20489;-63
2021/08/02 20:21:39;;;;;;;4.05;1.50;;;;;;;14.51;79.75;101428.81;10459361;28;20489;-63
2021/08/02 20:26:44;;;;;;;4.30;1.63;;;;;;;14.41;79.83;101435.59;10458629;28;20051;-66
2021/08/02 20:31:46;;;;;;;1.63;1.52;;;;;;;14.41;79.58;101438.25;10458474;28;20485;-66
2021/08/02 20:36:50;;;;;;;2.80;1.50;;;;;;;14.56;79.27;101437.25;10458695;28;20090;-64
2021/08/02 20:41:53;;;;;;;6.10;1.95;;;;;;;14.42;78.62;101435.47;10458729;28;20056;-65
2021/08/02 20:46:56;;;;;;;3.53;1.25;;;;;;;14.52;79.65;101446.28;10458150;28;20047;-65
2021/08/02 20:51:59;;;;;;;1.83;1.38;;;;;;;14.46;79.73;101433.53;10457456;28;20083;-66
2021/08/02 20:57:02;;;;;;;4.05;1.95;;;;;;;14.54;80.31;101443.56;10458055;28;20049;-64
2021/08/02 21:02:32;;;;;;;2.92;1.50;;;;;;;14.28;81.26;101448.69;10456864;28;20413;-66
2021/08/02 21:08:04;;;;;;;4.13;1.58;;;;;;;14.21;81.13;101455.28;10458265;28;20059;-66
2021/08/02 21:13:13;;;;;;;2.80;1.33;;;;;;;14.23;80.97;101456.88;10448914;28;20063;-65
2021/08/02 21:18:30;;;;;;;4.95;1.98;;;;;;;14.17;80.44;101456.41;10458015;28;20040;-66
2021/08/02 21:23:46;;;;;;;4.78;1.45;;;;;;;13.93;81.15;101454.34;10457353;28;20052;-65
2021/08/02 21:28:49;;;;;;;3.63;1.55;;;;;;;13.66;82.10;101441.91;10457379;28;20055;-65
2021/08/02 21:33:51;;;;;;;4.28;1.67;;;;;;;13.48;82.49;101441.25;10457047;28;20072;-67
2021/08/02 21:38:55;;;;;;;3.92;2.13;;;;;;;13.40;81.95;101440.00;10457118;28;20052;-65
2021/08/02 21:43:58;;;;;;;3.40;1.25;;;;;;;13.51;82.35;101433.16;10455802;28;20455;-65
2021/08/02 21:49:00;;;;;;;9.45;1.92;;;;;;;13.31;82.93;101433.47;10456218;28;20488;-66
2021/08/02 21:54:02;;;;;;;3.67;1.75;;;;;;;13.10;83.32;101436.41;10456408;28;20386;-65
2021/08/02 21:59:04;;;;;;;4.68;1.52;;;;;;;13.15;82.93;101439.63;10455166;28;20048;-65
2021/08/02 22:04:07;;;;;;;3.00;1.55;;;;;;;13.17;82.73;101440.38;10454791;28;20496;-66
2021/08/02 22:09:09;;;;;;;3.70;1.40;;;;;;;13.20;82.52;101445.47;10455857;28;20049;-65
2021/08/02 22:14:11;;;;;;;2.83;1.90;;;;;;;12.86;84.49;101453.56;10454950;28;20060;-65
2021/08/02 22:19:14;;;;;;;3.28;1.90;;;;;;;12.93;83.41;101445.28;10455692;28;20480;-65
2021/08/02 22:24:17;;;;;;;2.30;1.35;;;;;;;12.85;83.60;101438.75;10455605;28;20048;-65
2021/08/02 22:29:19;;;;;;;3.20;1.48;;;;;;;12.77;83.94;101444.44;10454419;28;20408;-65
2021/08/02 22:34:21;;;;;;;2.47;1.58;;;;;;;12.66;84.04;101431.91;10455866;28;20075;-66
2021/08/02 22:39:24;;;;;;;1.58;1.48;;;;;;;12.68;82.72;101432.69;10455846;28;20052;-66
2021/08/02 22:44:27;;;;;;;5.80;2.78;;;;;;;12.73;83.54;101435.06;10455081;28;20056;-65
2021/08/02 22:49:30;;;;;;;4.20;2.72;;;;;;;12.59;83.97;101434.03;10454164;28;20045;-67
2021/08/02 22:54:33;;;;;;;4.18;1.70;;;;;;;12.62;83.83;101422.50;10460933;28;20053;-65
2021/08/02 22:59:50;;;;;;;2.50;1.60;;;;;;;12.44;83.62;101432.28;10462710;28;20053;-65
2021/08/02 23:04:54;;;;;;;2.00;1.73;;;;;;;12.43;84.08;101435.81;10462340;28;20056;-64
2021/08/02 23:09:56;;;;;;;3.80;1.80;;;;;;;12.31;85.44;101421.59;10461145;28;20049;-67
2021/08/02 23:15:00;;;;;;;3.25;1.83;;;;;;;12.41;83.83;101419.31;10462166;28;20049;-66
2021/08/02 23:20:02;;;;;;;2.22;1.60;;;;;;;12.36;83.74;101410.84;10462237;28;20053;-66
2021/08/02 23:25:05;;;;;;;2.17;1.55;;;;;;;12.27;84.20;101407.78;10461660;28;20052;-66